createdAt,value
2022-08-07T00:02:39.724Z,17.01
2022-08-07T00:05:05.985Z,16.96
2022-08-07T00:07:39.223Z,16.96
2022-08-07T00:10:26.435Z,16.83
2022-08-07T00:13:00.001Z,15.67
2022-08-07T00:15:38.235Z,17.47
2022-08-07T00:18:19.196Z,16.78
2022-08-07T00:20:51.295Z,16.81
2022-08-07T00:23:21.331Z,16.87
2022-08-07T00:25:52.109Z,16.79
2022-08-07T00:28:33.450Z,16.80
2022-08-07T00:31:12.409Z,16.86
2022-08-07T00:33:41.997Z,16.78
2022-08-07T00:36:11.867Z,16.73
2022-08-07T00:38:40.390Z,17.27
2022-08-07T00:41:14.499Z,16.68
2022-08-07T00:44:00.471Z,16.58
2022-08-07T00:46:33.234Z,16.10
2022-08-07T00:49:03.242Z,16.44
2022-08-07T00:51:57.178Z,16.41
2022-08-07T00:54:22.304Z,16.37
2022-08-07T00:56:51.634Z,15.98
2022-08-07T00:59:32.399Z,15.86
2022-08-07T01:02:08.773Z,16.21
2022-08-07T01:04:43.148Z,16.11
2022-08-07T01:07:14.149Z,16.15
2022-08-07T01:10:05.754Z,16.09
2022-08-07T01:12:31.989Z,16.13
2022-08-07T01:15:04.013Z,16.09
2022-08-07T01:17:34.329Z,16.19
2022-08-07T01:20:17.180Z,16.18
2022-08-07T01:23:00.552Z,16.07
2022-08-07T01:25:56.147Z,16.78
2022-08-07T01:28:26.176Z,16.12
2022-08-07T01:30:58.215Z,16.18
2022-08-07T01:33:30.139Z,16.09
2022-08-07T01:36:17.070Z,15.21
2022-08-07T01:38:48.745Z,15.95
2022-08-07T01:41:26.066Z,15.86
2022-08-07T01:43:56.737Z,16.10
2022-08-07T01:46:26.174Z,15.97
2022-08-07T01:48:55.870Z,15.93
2022-08-07T01:52:02.232Z,15.82
2022-08-07T01:54:32.859Z,14.99
2022-08-07T01:57:24.158Z,15.67
2022-08-07T01:59:58.851Z,15.82
2022-08-07T02:03:19.108Z,16.03
2022-08-07T02:05:42.994Z,15.99
2022-08-07T02:08:23.687Z,16.07
2022-08-07T02:10:58.590Z,16.04
2022-08-07T02:13:57.631Z,16.03
2022-08-07T02:16:28.580Z,15.81
2022-08-07T02:19:05.669Z,15.91
2022-08-07T02:21:57.775Z,15.85
2022-08-07T02:24:29.423Z,15.95
2022-08-07T02:27:02.746Z,15.83
2022-08-07T02:29:34.311Z,15.70
2022-08-07T02:32:06.946Z,15.72
2022-08-07T02:34:50.969Z,15.65
2022-08-07T02:37:23.206Z,15.76
2022-08-07T02:40:02.150Z,15.65
2022-08-07T02:42:48.121Z,14.90
2022-08-07T02:46:00.411Z,15.34
2022-08-07T02:48:10.289Z,15.27
2022-08-07T02:50:49.716Z,15.21
2022-08-07T02:53:27.567Z,15.17
2022-08-07T02:56:02.235Z,15.05
2022-08-07T02:58:36.809Z,14.95
2022-08-07T03:01:16.075Z,15.03
2022-08-07T03:03:54.912Z,14.96
2022-08-07T03:06:32.938Z,14.95
2022-08-07T03:09:04.793Z,14.94
2022-08-07T03:11:38.719Z,15.05
2022-08-07T03:14:11.064Z,14.86
2022-08-07T03:16:41.002Z,15.01
2022-08-07T03:19:11.432Z,14.92
2022-08-07T03:21:50.553Z,14.89
2022-08-07T03:24:26.897Z,14.84
2022-08-07T03:27:04.751Z,14.84
2022-08-07T03:29:50.777Z,14.83
2022-08-07T03:32:26.610Z,14.76
2022-08-07T03:35:17.630Z,14.64
2022-08-07T03:37:55.259Z,14.76
2022-08-07T03:40:30.785Z,14.76
2022-08-07T03:43:13.844Z,14.80
2022-08-07T03:45:49.021Z,14.80
2022-08-07T03:48:23.262Z,14.70
2022-08-07T03:50:57.959Z,14.78
2022-08-07T03:54:01.945Z,14.75
2022-08-07T03:56:33.091Z,14.70
2022-08-07T03:59:09.551Z,14.49
2022-08-07T04:01:46.979Z,14.50
2022-08-07T04:04:21.312Z,14.50
2022-08-07T04:06:54.259Z,14.50
2022-08-07T04:09:29.511Z,14.57
2022-08-07T04:12:24.400Z,14.56
2022-08-07T04:15:00.231Z,14.61
2022-08-07T04:18:31.360Z,14.67
2022-08-07T04:20:22.574Z,14.67
2022-08-07T04:23:01.437Z,14.64
2022-08-07T04:25:39.106Z,14.60
2022-08-07T04:28:13.265Z,14.57
2022-08-07T04:30:55.154Z,14.76
2022-08-07T04:33:30.373Z,14.72
2022-08-07T04:36:00.111Z,14.06
2022-08-07T04:38:35.002Z,14.75
2022-08-07T04:41:04.499Z,14.63
2022-08-07T04:44:14.518Z,14.93
2022-08-07T04:46:59.571Z,14.80
2022-08-07T04:49:42.352Z,14.86
2022-08-07T04:52:38.282Z,14.89
2022-08-07T04:58:09.596Z,14.90
2022-08-07T04:58:49.708Z,15.01
2022-08-07T05:01:30.193Z,15.02
2022-08-07T05:04:17.118Z,15.05
2022-08-07T05:06:59.361Z,15.12
2022-08-07T05:09:45.307Z,15.22
2022-08-07T05:12:27.430Z,15.19
2022-08-07T05:15:23.298Z,15.30
2022-08-07T05:18:08.859Z,15.46
2022-08-07T05:20:43.455Z,15.47
2022-08-07T05:23:19.188Z,15.57
2022-08-07T05:26:11.579Z,15.58
2022-08-07T05:28:46.482Z,15.55
2022-08-07T05:31:19.064Z,15.68
2022-08-07T05:34:01.266Z,15.50
2022-08-07T05:36:35.939Z,15.71
2022-08-07T05:40:14.224Z,15.86
2022-08-07T05:42:08.749Z,15.76
2022-08-07T05:44:52.938Z,15.88
2022-08-07T05:47:38.146Z,15.89
2022-08-07T05:50:20.054Z,15.92
2022-08-07T05:52:49.086Z,16.19
2022-08-07T05:55:20.345Z,16.15
2022-08-07T05:57:50.515Z,16.25
2022-08-07T06:00:20.048Z,16.39
2022-08-07T06:03:00.835Z,16.40
2022-08-07T06:05:31.359Z,16.62
2022-08-07T06:08:29.847Z,16.77
2022-08-07T06:10:56.417Z,16.75
2022-08-07T06:14:10.820Z,16.78
2022-08-07T06:16:16.573Z,16.85
2022-08-07T06:18:51.455Z,16.94
2022-08-07T06:22:16.438Z,17.11
2022-08-07T06:24:50.730Z,17.24
2022-08-07T06:27:03.799Z,17.33
2022-08-07T06:29:34.947Z,17.38
2022-08-07T06:32:08.481Z,17.56
2022-08-07T06:34:37.510Z,17.72
2022-08-07T06:37:11.201Z,17.80
2022-08-07T06:40:17.674Z,18.02
2022-08-07T06:42:38.397Z,18.10
2022-08-07T06:45:18.250Z,18.03
2022-08-07T06:47:58.555Z,18.13
2022-08-07T06:50:36.096Z,18.42
2022-08-07T06:54:11.492Z,18.39
2022-08-07T06:56:00.975Z,18.85
2022-08-07T06:58:35.732Z,18.74
2022-08-07T07:01:12.177Z,18.92
2022-08-07T07:03:50.018Z,19.15
2022-08-07T07:06:27.333Z,19.17
2022-08-07T07:08:56.775Z,19.07
2022-08-07T07:12:08.414Z,19.43
2022-08-07T07:14:17.931Z,19.29
2022-08-07T07:16:50.628Z,19.26
2022-08-07T07:19:57.688Z,19.61
2022-08-07T07:22:36.607Z,19.47
2022-08-07T07:25:13.898Z,19.67
2022-08-07T07:28:02.981Z,19.78
2022-08-07T07:30:42.927Z,19.85
2022-08-07T07:33:15.217Z,20.06
2022-08-07T07:36:04.042Z,20.27
2022-08-07T07:38:36.059Z,20.31
2022-08-07T07:41:08.867Z,20.44
2022-08-07T07:44:14.787Z,20.51
2022-08-07T07:46:55.361Z,20.49
2022-08-07T07:50:34.694Z,20.81
2022-08-07T07:52:18.189Z,20.84
2022-08-07T07:54:51.188Z,20.99
2022-08-07T07:57:43.894Z,20.79
2022-08-07T08:00:28.814Z,21.29
2022-08-07T08:03:07.347Z,21.27
2022-08-07T08:05:55.351Z,21.12
2022-08-07T08:08:35.185Z,21.38
2022-08-07T08:11:13.511Z,21.54
2022-08-07T08:13:54.458Z,21.66
2022-08-07T08:16:31.041Z,21.76
2022-08-07T08:19:09.746Z,21.87
2022-08-07T08:22:07.995Z,21.98
2022-08-07T08:25:09.332Z,21.86
2022-08-07T08:27:57.484Z,21.90
2022-08-07T08:30:32.169Z,22.06
2022-08-07T08:33:05.377Z,22.23
2022-08-07T08:35:47.226Z,22.28
2022-08-07T08:38:29.590Z,22.58
2022-08-07T08:41:09.301Z,22.42
2022-08-07T08:43:56.108Z,22.50
2022-08-07T08:46:38.362Z,22.63
2022-08-07T08:49:33.534Z,22.32
2022-08-07T08:52:19.023Z,22.53
2022-08-07T08:54:56.499Z,23.09
2022-08-07T08:57:34.296Z,22.74
2022-08-07T09:00:07.659Z,22.77
2022-08-07T09:02:49.514Z,22.59
2022-08-07T09:05:38.459Z,22.83
2022-08-07T09:08:29.010Z,22.77
2022-08-07T09:11:10.889Z,22.82
2022-08-07T09:13:56.108Z,22.82
2022-08-07T09:16:38.179Z,22.95
2022-08-07T09:19:53.079Z,23.15
2022-08-07T09:24:28.681Z,22.96
2022-08-07T09:25:38.218Z,23.13
2022-08-07T09:30:04.645Z,23.49
2022-08-07T09:31:04.173Z,23.54
2022-08-07T09:33:58.286Z,23.72
2022-08-07T09:36:37.369Z,23.84
2022-08-07T09:39:52.662Z,23.87
2022-08-07T09:42:45.590Z,23.91
2022-08-07T09:47:52.478Z,23.97
2022-08-07T09:49:02.304Z,24.21
2022-08-07T09:52:16.489Z,24.17
2022-08-07T09:54:40.233Z,24.39
2022-08-07T09:57:49.048Z,24.28
2022-08-07T10:00:24.385Z,24.03
2022-08-07T10:04:03.137Z,24.34
2022-08-07T10:07:25.969Z,24.26
2022-08-07T10:10:21.482Z,24.55
2022-08-07T10:14:01.451Z,24.66
2022-08-07T10:16:45.229Z,24.93
2022-08-07T10:19:27.020Z,24.88
2022-08-07T10:22:17.220Z,24.89
2022-08-07T10:25:13.556Z,24.88
2022-08-07T10:28:03.759Z,24.88
2022-08-07T10:30:48.943Z,24.81
2022-08-07T10:34:07.000Z,24.79
2022-08-07T10:36:52.023Z,24.79
2022-08-07T10:39:57.397Z,24.78
2022-08-07T10:42:38.480Z,25.01
2022-08-07T10:45:44.389Z,25.04
2022-08-07T10:48:36.016Z,25.08
2022-08-07T10:51:16.580Z,25.42
2022-08-07T10:54:11.801Z,25.30
2022-08-07T10:57:04.688Z,25.64
2022-08-07T10:59:49.442Z,25.50
2022-08-07T11:02:34.070Z,25.42
2022-08-07T11:05:35.914Z,25.29
2022-08-07T11:08:31.019Z,25.45
2022-08-07T11:11:09.610Z,25.59
2022-08-07T11:14:43.410Z,25.92
2022-08-07T11:16:55.750Z,25.94
2022-08-07T11:19:39.552Z,26.11
2022-08-07T11:22:26.394Z,26.01
2022-08-07T11:25:08.750Z,26.12
2022-08-07T11:28:02.822Z,25.62
2022-08-07T11:30:43.819Z,26.20
2022-08-07T11:33:54.047Z,26.00
2022-08-07T11:36:31.637Z,26.00
2022-08-07T11:39:19.479Z,26.35
2022-08-07T11:42:00.390Z,25.95
2022-08-07T11:44:52.562Z,26.28
2022-08-07T11:47:59.103Z,26.58
2022-08-07T11:50:58.017Z,26.99
2022-08-07T11:53:43.237Z,26.88
2022-08-07T11:56:46.742Z,27.08
2022-08-07T12:00:11.298Z,27.56
2022-08-07T12:03:45.199Z,27.13
2022-08-07T12:06:37.758Z,27.32
2022-08-07T12:09:16.709Z,27.48
2022-08-07T12:12:08.841Z,27.42
2022-08-07T12:14:55.442Z,27.44
2022-08-07T12:17:40.590Z,27.56
2022-08-07T12:20:35.257Z,27.65
2022-08-07T12:24:05.757Z,28.05
2022-08-07T12:26:35.396Z,28.09
2022-08-07T12:29:38.794Z,28.03
2022-08-07T12:32:19.022Z,27.96
2022-08-07T12:34:53.436Z,27.96
2022-08-07T12:37:28.562Z,28.07
2022-08-07T12:40:46.423Z,27.93
2022-08-07T12:43:12.413Z,27.16
2022-08-07T12:46:26.460Z,28.07
2022-08-07T12:49:39.719Z,28.56
2022-08-07T12:52:14.134Z,28.19
2022-08-07T12:55:00.140Z,28.41
2022-08-07T12:57:39.088Z,28.38
2022-08-07T13:00:41.744Z,28.06
2022-08-07T13:03:59.151Z,28.15
2022-08-07T13:07:02.471Z,27.83
2022-08-07T13:10:28.526Z,27.95
2022-08-07T13:13:06.594Z,27.92
2022-08-07T13:15:47.534Z,28.25
2022-08-07T13:18:32.041Z,28.14
2022-08-07T13:21:23.586Z,28.57
2022-08-07T13:24:19.525Z,28.72
2022-08-07T13:27:05.533Z,28.64
2022-08-07T13:29:46.997Z,28.72
2022-08-07T13:32:31.224Z,28.49
2022-08-07T13:35:09.366Z,28.89
2022-08-07T13:37:59.114Z,28.98
2022-08-07T13:40:42.333Z,28.85
2022-08-07T13:43:16.310Z,28.57
2022-08-07T13:46:11.859Z,28.85
2022-08-07T13:48:40.758Z,28.70
2022-08-07T13:51:28.153Z,28.58
2022-08-07T13:54:04.488Z,28.54
2022-08-07T13:56:41.270Z,28.37
2022-08-07T13:59:23.058Z,28.16
2022-08-07T14:02:04.465Z,27.88
2022-08-07T14:04:48.905Z,27.55
2022-08-07T14:07:22.975Z,27.66
2022-08-07T14:10:12.351Z,27.97
2022-08-07T14:12:54.916Z,28.39
2022-08-07T14:15:34.961Z,28.84
2022-08-07T14:18:23.970Z,29.08
2022-08-07T14:21:08.527Z,29.09
2022-08-07T14:24:00.751Z,29.16
2022-08-07T14:26:39.107Z,29.16
2022-08-07T14:30:07.337Z,29.00
2022-08-07T14:32:07.904Z,29.65
2022-08-07T14:34:45.888Z,29.61
2022-08-07T14:37:17.905Z,29.73
2022-08-07T14:40:17.344Z,29.32
2022-08-07T14:43:01.139Z,29.77
2022-08-07T14:51:15.917Z,29.91
2022-08-07T14:56:42.324Z,29.42
2022-08-07T15:00:03.551Z,29.14
2022-08-07T15:05:02.185Z,29.25
2022-08-07T15:10:26.533Z,29.11
2022-08-07T15:13:01.086Z,28.98
2022-08-07T15:15:40.578Z,28.78
2022-08-07T15:18:33.956Z,28.53
2022-08-07T15:25:13.284Z,27.88
2022-08-07T15:26:57.151Z,27.76
2022-08-07T15:30:10.911Z,27.86
2022-08-07T15:32:39.395Z,27.86
2022-08-07T15:35:16.965Z,27.78
2022-08-07T15:38:17.261Z,27.39
2022-08-07T15:41:00.386Z,27.64
2022-08-07T15:43:33.211Z,27.76
2022-08-07T15:49:15.491Z,27.19
2022-08-07T15:54:34.152Z,27.47
2022-08-07T15:57:06.116Z,27.28
2022-08-07T15:59:39.585Z,26.98
2022-08-07T16:02:24.748Z,27.17
2022-08-07T16:04:59.400Z,27.26
2022-08-07T16:08:32.551Z,27.06
2022-08-07T16:10:28.446Z,27.04
2022-08-07T16:13:58.565Z,26.90
2022-08-07T16:16:56.714Z,26.92
2022-08-07T16:19:59.473Z,26.50
2022-08-07T16:23:05.239Z,26.35
2022-08-07T16:25:55.229Z,26.40
2022-08-07T16:30:07.247Z,26.58
2022-08-07T16:32:00.786Z,26.58
2022-08-07T16:34:49.416Z,26.63
2022-08-07T16:38:04.442Z,26.48
2022-08-07T16:41:17.991Z,26.44
2022-08-07T16:44:46.967Z,26.35
2022-08-07T16:47:53.095Z,26.68
2022-08-07T16:50:37.113Z,26.79
2022-08-07T16:54:02.714Z,26.27
2022-08-07T16:56:37.518Z,26.03
2022-08-07T16:59:17.979Z,26.39
2022-08-07T17:02:03.417Z,26.33
2022-08-07T17:04:50.953Z,26.46
2022-08-07T17:07:55.695Z,26.28
2022-08-07T17:10:41.951Z,26.14
2022-08-07T17:14:18.513Z,26.00
2022-08-07T17:16:46.066Z,25.75
2022-08-07T17:20:02.015Z,25.64
2022-08-07T17:22:42.630Z,25.76
2022-08-07T17:25:20.108Z,25.75
2022-08-07T17:28:19.573Z,25.79
2022-08-07T17:31:00.567Z,25.92
2022-08-07T17:34:17.871Z,26.01
2022-08-07T17:36:57.588Z,25.85
2022-08-07T17:39:58.892Z,25.30
2022-08-07T17:42:59.767Z,25.77
2022-08-07T17:45:35.925Z,25.62
2022-08-07T17:48:12.920Z,25.52
2022-08-07T17:51:01.770Z,25.36
2022-08-07T17:54:01.400Z,25.29
2022-08-07T17:56:36.452Z,25.41
2022-08-07T17:59:25.299Z,25.40
2022-08-07T18:02:02.849Z,25.40
2022-08-07T18:04:46.249Z,24.89
2022-08-07T18:07:28.589Z,25.56
2022-08-07T18:10:11.811Z,25.29
2022-08-07T18:13:16.648Z,25.60
2022-08-07T18:16:06.401Z,25.78
2022-08-07T18:21:04.066Z,25.62
2022-08-07T18:21:58.310Z,26.16
2022-08-07T18:24:35.281Z,25.84
2022-08-07T18:27:38.961Z,25.56
2022-08-07T18:30:33.067Z,25.24
2022-08-07T18:33:37.917Z,24.86
2022-08-07T18:36:26.805Z,24.62
2022-08-07T18:40:07.125Z,24.37
2022-08-07T18:42:18.743Z,24.11
2022-08-07T18:45:43.690Z,24.05
2022-08-07T18:48:01.912Z,23.90
2022-08-07T18:50:58.242Z,24.37
2022-08-07T18:53:45.865Z,23.60
2022-08-07T18:56:31.783Z,23.11
2022-08-07T18:59:48.057Z,23.27
2022-08-07T19:02:34.584Z,23.09
2022-08-07T19:05:15.816Z,22.77
2022-08-07T19:07:59.311Z,22.46
2022-08-07T19:10:51.651Z,22.57
2022-08-07T19:13:27.473Z,22.60
2022-08-07T19:17:06.465Z,22.42
2022-08-07T19:19:04.759Z,22.11
2022-08-07T19:21:51.275Z,21.78
2022-08-07T19:24:38.187Z,21.64
2022-08-07T19:28:58.312Z,21.52
2022-08-07T19:31:01.319Z,21.41
2022-08-07T19:33:12.794Z,21.17
2022-08-07T19:35:43.434Z,20.37
2022-08-07T19:38:17.450Z,21.04
2022-08-07T19:40:49.959Z,20.91
2022-08-07T19:43:44.257Z,21.05
2022-08-07T19:46:14.532Z,20.78
2022-08-07T19:48:53.897Z,20.75
2022-08-07T19:51:52.212Z,20.62
2022-08-07T19:54:33.608Z,20.64
2022-08-07T19:58:01.509Z,20.43
2022-08-07T20:00:00.177Z,20.40
2022-08-07T20:02:38.976Z,20.24
2022-08-07T20:05:11.637Z,20.28
2022-08-07T20:07:50.922Z,20.34
2022-08-07T20:10:38.100Z,20.18
2022-08-07T20:13:22.861Z,19.93
2022-08-07T20:15:57.797Z,19.90
2022-08-07T20:18:33.024Z,19.46
2022-08-07T20:21:14.750Z,19.87
2022-08-07T20:23:54.989Z,19.74
2022-08-07T20:26:44.825Z,19.64
2022-08-07T20:29:48.146Z,19.72
2022-08-07T20:32:11.437Z,19.52
2022-08-07T20:34:55.833Z,19.47
2022-08-07T20:37:34.247Z,19.36
2022-08-07T20:40:33.230Z,19.26
2022-08-07T20:43:14.430Z,19.21
2022-08-07T20:46:25.637Z,19.13
2022-08-07T20:48:58.027Z,19.10
2022-08-07T20:51:35.907Z,19.09
2022-08-07T20:54:12.227Z,19.33
2022-08-07T20:56:49.849Z,19.14
2022-08-07T21:00:04.606Z,18.92
2022-08-07T21:02:32.976Z,18.82
2022-08-07T21:05:04.438Z,18.61
2022-08-07T21:07:40.442Z,18.43
2022-08-07T21:10:12.725Z,18.33
2022-08-07T21:12:43.804Z,17.96
2022-08-07T21:15:19.081Z,17.97
2022-08-07T21:18:17.208Z,18.08
2022-08-07T21:20:47.946Z,17.96
2022-08-07T21:23:32.179Z,17.90
2022-08-07T21:26:13.810Z,17.89
2022-08-07T21:28:51.181Z,17.76
2022-08-07T21:32:41.756Z,17.76
2022-08-07T21:34:35.193Z,17.74
2022-08-07T21:37:22.551Z,17.73
2022-08-07T21:39:58.954Z,17.39
2022-08-07T21:42:46.477Z,17.42
2022-08-07T21:46:07.806Z,17.13
2022-08-07T21:48:41.461Z,16.99
2022-08-07T21:51:25.080Z,16.97
2022-08-07T21:54:02.604Z,16.76
2022-08-07T21:56:49.146Z,16.78
2022-08-07T22:00:02.889Z,16.31
2022-08-07T22:02:32.552Z,16.53
2022-08-07T22:05:05.620Z,16.73
2022-08-07T22:07:58.189Z,16.79
2022-08-07T22:10:32.818Z,16.69
2022-08-07T22:13:05.987Z,16.71
2022-08-07T22:16:38.517Z,16.73
2022-08-07T22:18:40.928Z,16.57
2022-08-07T22:21:20.327Z,16.46
2022-08-07T22:23:54.445Z,16.61
2022-08-07T22:26:29.932Z,16.35
2022-08-07T22:29:08.807Z,16.42
2022-08-07T22:32:03.471Z,16.40
2022-08-07T22:34:53.152Z,16.38
2022-08-07T22:38:03.581Z,16.37
2022-08-07T22:40:33.466Z,16.25
2022-08-07T22:43:11.259Z,16.25
2022-08-07T22:46:40.901Z,16.09
2022-08-07T22:49:08.016Z,16.04
2022-08-07T22:52:14.036Z,16.01
2022-08-07T22:55:34.520Z,16.03
2022-08-07T22:58:38.632Z,15.98
2022-08-07T23:01:36.802Z,15.92
2022-08-07T23:04:57.791Z,15.91
2022-08-07T23:07:50.863Z,15.84
2022-08-07T23:10:41.899Z,15.83
2022-08-07T23:13:48.713Z,15.76
2022-08-07T23:16:55.577Z,15.55
2022-08-07T23:19:58.528Z,15.43
2022-08-07T23:22:47.924Z,15.39
2022-08-07T23:25:34.170Z,15.36
2022-08-07T23:28:44.353Z,15.17
2022-08-07T23:32:48.851Z,15.08
2022-08-07T23:34:56.568Z,14.96
2022-08-07T23:38:03.963Z,14.87
2022-08-07T23:40:39.488Z,14.77
2022-08-07T23:43:43.919Z,14.56
2022-08-07T23:46:43.167Z,14.46
2022-08-07T23:50:04.418Z,14.55
2022-08-07T23:53:05.740Z,14.61
2022-08-07T23:55:52.100Z,14.67
2022-08-07T23:58:30.723Z,14.61
